Van Buren Point, NY

3:40 AM EDT on September 03, 2014 (GMT -0400)
Town of Pomfret | Change Station
CLOSE
Current Station
Personal Weather Station
Location: Fredonia, NY
Elevation: 846 ft
Nearby Weather Stations

Elev 846 ft 42.42 °N, 79.35 °W | Updated 14 minutes ago

Clear
Clear
62.6 °F
Feels Like 62.6 °F
N
0.0
Wind Variable Wind from SW

Today
High -- | Low -- °F
--% Chance of Precip.
Yesterday
High -- | Low -- °F
Precip. -- in
6:44 AM 7:48 PM
First Quarter, 59% visible
Pressure 29.96 in
Visibility 10.0 miles
Clouds Clear
Dew Point 62 °F
Humidity 98%
Rainfall 0.00 in
Snow Depth Not available.
UV 0 out of 12
Pollen 6.00 out of 12
Ozone Good
PM2.5 Good
Flu Activity Not available.
METAR KDKK 030653Z AUTO 21004KT 10SM CLR 17/17 A2996 RMK AO2 SLP143 T01720167

More Conditions Fewer Conditions

Pressure 29.96 in
Visibility 10.0 miles
Clouds Clear
Dew Point 62 °F
Humidity 98%
Rainfall 0.00 in
Snow Depth Not available.
UV 0 out of 12
Pollen 6.00 out of 12
Ozone Good
PM2.5 Good
Flu Activity Not available.
METAR KDKK 030653Z AUTO 21004KT 10SM CLR 17/17 A2996 RMK AO2 SLP143 T01720167

More Conditions Fewer Conditions

10-Day Weather Forecast

Almanac

Astronomy

Sep. 03, 2014 Rise Set
Actual Time 6:44 AM EDT 7:48 PM EDT
Civil Twilight 6:16 AM EDT 8:17 PM EDT
Nautical Twilight 5:41 AM EDT 8:51 PM EDT
Astronomical Twilight 5:05 AM EDT 9:27 PM EDT
Moon 3:32 PM EDT 12:33 AM EDT
Length of Visible Light 14h 01m
Length of Day
13h 03m
Tomorrow will be 2m 47s shorter.
First Quarter, 59% of the Moon is Illuminated
Today
First Quarter
Sep 8
Full
Sep 15
Last Quarter
Sep 24
New
Oct 1
First Quarter

Today's Extremes

State Highs State Lows

Community

WunderPhotos

Upload Photos

1,749,899 photos uploaded!

Nearby

Air Quality

  Air Quality AQ Index Pollutant
Yesterday Good
OZONE
Yesterday Good
PM2.5
Current Good
PM2.5
Current Good
OZONE
Wednesday Good
PM2.5
Wednesday Good
OZONE

Snow Depth

Station Depth Elevation
No new snow has been reported.

Earthquake Activity

City Distance Mag. Time & Date
No recent earthquake activity has been reported nearby.
Minimum magnitude displayed is 2.5.

Coastal Water Temperatures

Place Temperature
Buffalo, NY 73.0 °F

Nearby Weather Stations